Vinegar Bend, Alabama
Current Conditions -  °F | °C
As of 2:56 PM on Monday 24 Nov 2014 (Local Time) from KMOB Reporting Station
Broken Clouds Broken Clouds  
Wind Chill: 24°   Ceiling: 25000
Heat Index: 24°   Visibility: 10mi
Dew Point: 13°   Wind: 12mph
Humidity: 51%   Direction: 310°NW
Pressure: 29.86"   Gusts: 17mph
Location:  31.26°N, 88.34°W
Report Text: KMOB 242056Z 31010G15KT 10SM BKN250 24/13 A2986 RMK AO2 SLP107 T02390133 53006
Loading
Personal Weather Stations






























Interactive Weather Map New forecast layout! Learn more

10-Day Weather Forecast

Advertisements
Track Severe Weather on mobile